createdAt,value
2017-12-24T05:00:47.705Z,0
2017-12-24T05:01:13.207Z,0
2017-12-24T05:01:38.688Z,0
2017-12-24T05:02:04.189Z,0
2017-12-24T05:02:29.668Z,0
2017-12-24T05:02:55.168Z,0
2017-12-24T05:03:20.671Z,0
2017-12-24T05:03:46.168Z,0
2017-12-24T05:04:11.650Z,0
2017-12-24T05:04:37.163Z,0
2017-12-24T05:05:02.682Z,0
2017-12-24T05:05:28.182Z,0
2017-12-24T05:05:53.690Z,0
2017-12-24T05:06:19.191Z,0
2017-12-24T05:06:44.714Z,0
2017-12-24T05:07:10.131Z,0
2017-12-24T05:07:35.651Z,0
2017-12-24T05:08:01.139Z,0
2017-12-24T05:08:26.565Z,0
2017-12-24T05:08:52.060Z,0
2017-12-24T05:09:17.555Z,0
2017-12-24T05:09:43.056Z,0
2017-12-24T05:10:56.845Z,0
2017-12-24T05:11:22.336Z,0
2017-12-24T05:11:47.841Z,0
2017-12-24T05:12:13.331Z,0
2017-12-24T05:12:38.833Z,0
2017-12-24T05:13:04.331Z,0
2017-12-24T05:13:29.835Z,0
2017-12-24T05:13:55.328Z,0
2017-12-24T05:14:20.821Z,0
2017-12-24T05:14:46.278Z,0
2017-12-24T05:15:11.806Z,0
2017-12-24T05:15:37.320Z,0
2017-12-24T05:16:02.859Z,0
2017-12-24T05:16:28.312Z,0
2017-12-24T05:16:53.816Z,0
2017-12-24T05:17:19.315Z,0
2017-12-24T05:17:44.769Z,0
2017-12-24T05:18:10.251Z,0
2017-12-24T05:18:35.778Z,0
2017-12-24T05:19:01.222Z,0
2017-12-24T05:19:26.731Z,0
2017-12-24T05:19:52.201Z,0
2017-12-24T05:20:17.691Z,0
2017-12-24T05:20:43.193Z,0
2017-12-24T05:21:08.684Z,0
2017-12-24T05:21:34.181Z,0
2017-12-24T05:21:59.663Z,0
2017-12-24T05:22:25.153Z,0
2017-12-24T05:22:50.650Z,0
2017-12-24T05:23:16.131Z,0
2017-12-24T05:23:41.621Z,0
2017-12-24T05:24:07.102Z,0
2017-12-24T05:24:32.584Z,0
2017-12-24T05:24:58.070Z,0
2017-12-24T05:25:23.588Z,0
2017-12-24T05:25:49.057Z,0
2017-12-24T05:26:14.549Z,0
2017-12-24T05:26:40.056Z,0
2017-12-24T05:27:05.535Z,0
2017-12-24T05:27:31.035Z,0
2017-12-24T05:27:56.550Z,0
2017-12-24T05:28:22.049Z,0
2017-12-24T05:28:47.534Z,0
2017-12-24T05:29:13.067Z,0
2017-12-24T05:29:38.570Z,0
2017-12-24T05:30:04.053Z,0
2017-12-24T05:30:29.569Z,0
2017-12-24T05:30:55.043Z,0
2017-12-24T05:31:20.543Z,0
2017-12-24T05:31:46.058Z,0
2017-12-24T05:32:11.540Z,0
2017-12-24T05:32:37.016Z,0
2017-12-24T05:33:02.512Z,0
2017-12-24T05:33:27.986Z,0
2017-12-24T05:33:53.463Z,0
2017-12-24T05:34:19.000Z,0
2017-12-24T05:34:44.506Z,0
2017-12-24T05:35:10.001Z,0
2017-12-24T05:35:35.468Z,0
2017-12-24T05:36:00.979Z,0
2017-12-24T05:36:26.484Z,0
2017-12-24T05:36:51.993Z,0
2017-12-24T05:37:17.451Z,0
2017-12-24T05:37:42.941Z,0
2017-12-24T05:39:12.045Z,0
2017-12-24T05:39:37.531Z,0
2017-12-24T05:40:03.032Z,0
2017-12-24T05:40:28.523Z,0
2017-12-24T05:40:54.015Z,0
2017-12-24T05:41:19.514Z,0
2017-12-24T05:41:45.014Z,0
2017-12-24T05:42:10.513Z,0
2017-12-24T05:42:35.997Z,0
2017-12-24T05:43:01.508Z,0
2017-12-24T05:43:27.022Z,0
2017-12-24T05:43:52.521Z,0
2017-12-24T05:44:17.999Z,0
2017-12-24T05:44:43.492Z,0
2017-12-24T05:45:08.962Z,0
2017-12-24T05:45:34.447Z,0
2017-12-24T05:45:59.926Z,0
2017-12-24T05:46:25.407Z,0
2017-12-24T05:46:50.925Z,0
2017-12-24T05:47:16.428Z,0
2017-12-24T05:47:41.903Z,0
2017-12-24T05:48:07.402Z,0
2017-12-24T05:48:32.890Z,0
2017-12-24T05:51:05.597Z,0
2017-12-24T05:51:31.070Z,0
2017-12-24T05:51:56.559Z,0
2017-12-24T05:52:22.057Z,0
2017-12-24T05:52:47.553Z,0
2017-12-24T05:53:13.010Z,0
2017-12-24T05:53:38.525Z,0
2017-12-24T05:54:04.044Z,0
2017-12-24T05:54:29.547Z,0
2017-12-24T05:54:55.053Z,0
2017-12-24T05:55:20.538Z,0
2017-12-24T05:55:45.987Z,0
2017-12-24T05:56:11.449Z,0
2017-12-24T05:56:36.930Z,0
2017-12-24T05:57:02.426Z,0
2017-12-24T05:57:27.924Z,0
2017-12-24T05:57:53.396Z,0
2017-12-24T05:58:18.911Z,0
2017-12-24T05:58:44.385Z,0
2017-12-24T05:59:09.858Z,0
2017-12-24T05:59:35.339Z,0
2017-12-24T06:00:00.820Z,0
2017-12-24T06:00:26.315Z,0
2017-12-24T06:00:51.820Z,0
2017-12-24T06:01:17.309Z,0
2017-12-24T06:01:42.800Z,0
2017-12-24T06:02:08.293Z,0
2017-12-24T06:02:33.797Z,0
2017-12-24T06:02:59.296Z,0
2017-12-24T06:04:17.698Z,0
2017-12-24T06:04:43.194Z,0
2017-12-24T06:05:08.688Z,0
2017-12-24T06:05:34.169Z,0
2017-12-24T06:05:59.651Z,0
2017-12-24T06:06:25.158Z,0
2017-12-24T06:06:50.643Z,0
2017-12-24T06:07:16.129Z,0
2017-12-24T06:07:41.643Z,0
2017-12-24T06:08:07.133Z,0
2017-12-24T06:08:32.643Z,0
2017-12-24T06:08:58.138Z,0
2017-12-24T06:09:23.605Z,0
2017-12-24T06:09:49.108Z,0
2017-12-24T06:10:14.584Z,0
2017-12-24T06:11:33.546Z,0
2017-12-24T06:11:59.030Z,0
2017-12-24T06:12:24.527Z,0
2017-12-24T06:12:50.030Z,0
2017-12-24T06:13:15.501Z,0
2017-12-24T06:13:40.991Z,0
2017-12-24T06:14:06.508Z,0
2017-12-24T06:14:31.969Z,0
2017-12-24T06:14:57.450Z,0
2017-12-24T06:15:22.928Z,0
2017-12-24T06:15:48.432Z,0
2017-12-24T06:16:13.922Z,0
2017-12-24T06:17:43.069Z,0
2017-12-24T06:18:08.552Z,0
2017-12-24T06:18:34.046Z,0
2017-12-24T06:18:59.510Z,0
2017-12-24T06:19:24.974Z,0
2017-12-24T06:20:38.756Z,0
2017-12-24T06:21:04.241Z,0
2017-12-24T06:21:29.727Z,0
2017-12-24T06:21:55.258Z,0
2017-12-24T06:22:20.726Z,0
2017-12-24T06:22:46.221Z,0
2017-12-24T06:23:11.670Z,0
2017-12-24T06:23:37.164Z,0
2017-12-24T06:24:02.629Z,0
2017-12-24T06:24:28.114Z,0
2017-12-24T06:24:53.626Z,0
2017-12-24T06:25:19.109Z,0
2017-12-24T06:25:44.585Z,0
2017-12-24T06:26:10.098Z,0
2017-12-24T06:26:35.577Z,0
2017-12-24T06:27:01.055Z,0
2017-12-24T06:27:26.532Z,0
2017-12-24T06:27:52.003Z,0
2017-12-24T06:28:17.494Z,0
2017-12-24T06:29:46.674Z,0
2017-12-24T06:30:12.113Z,0
2017-12-24T06:30:37.608Z,0
2017-12-24T06:31:03.091Z,0
2017-12-24T06:31:28.586Z,0
2017-12-24T06:31:54.102Z,0
2017-12-24T06:32:19.616Z,0
2017-12-24T06:32:45.064Z,0
2017-12-24T06:33:10.598Z,0
2017-12-24T06:33:36.061Z,0
2017-12-24T06:34:01.586Z,0
2017-12-24T06:34:27.092Z,0
2017-12-24T06:34:52.588Z,0
2017-12-24T06:35:18.059Z,0
2017-12-24T06:35:43.553Z,0
2017-12-24T06:36:09.054Z,0
2017-12-24T06:36:34.539Z,0
2017-12-24T06:37:00.033Z,0
2017-12-24T06:37:25.520Z,0
2017-12-24T06:37:51.043Z,0
2017-12-24T06:38:16.527Z,0
2017-12-24T06:38:42.031Z,0
2017-12-24T06:39:07.522Z,0
2017-12-24T06:39:33.034Z,0
2017-12-24T06:39:58.519Z,0
2017-12-24T06:40:24.015Z,0
2017-12-24T06:40:49.517Z,0
2017-12-24T06:41:15.023Z,0
2017-12-24T06:41:40.500Z,0
2017-12-24T06:42:05.974Z,0
2017-12-24T06:42:31.438Z,0
2017-12-24T06:42:56.898Z,0
2017-12-24T06:43:22.358Z,0
2017-12-24T06:43:47.846Z,0
2017-12-24T06:44:56.549Z,0
2017-12-24T06:45:22.053Z,0
2017-12-24T06:45:47.545Z,0
2017-12-24T06:46:13.039Z,0
2017-12-24T06:46:38.559Z,0
2017-12-24T06:47:04.040Z,0
2017-12-24T06:47:29.517Z,0
2017-12-24T06:47:55.037Z,0
2017-12-24T06:48:20.515Z,0
2017-12-24T06:48:45.987Z,0
2017-12-24T06:49:11.449Z,0
2017-12-24T06:49:36.981Z,0
2017-12-24T06:50:02.461Z,0
2017-12-24T06:50:27.975Z,0
2017-12-24T06:50:53.476Z,0
2017-12-24T06:51:18.980Z,0
2017-12-24T06:51:44.429Z,0
2017-12-24T06:52:09.938Z,0
2017-12-24T06:52:35.380Z,0
2017-12-24T06:53:00.873Z,0
2017-12-24T06:53:26.370Z,0
2017-12-24T06:53:51.840Z,0
2017-12-24T06:54:17.319Z,0
2017-12-24T06:54:42.808Z,0
2017-12-24T06:55:08.284Z,0
2017-12-24T06:55:33.748Z,0
2017-12-24T06:55:59.254Z,0
2017-12-24T06:56:24.712Z,0
2017-12-24T06:57:38.009Z,0
2017-12-24T06:58:03.492Z,0
2017-12-24T06:58:28.986Z,0
2017-12-24T06:58:54.490Z,0
2017-12-24T06:59:19.996Z,0
2017-12-24T06:59:45.506Z,0
2017-12-24T07:00:10.969Z,0
2017-12-24T07:00:36.445Z,0
2017-12-24T07:01:01.923Z,0
2017-12-24T07:01:27.393Z,0
2017-12-24T07:01:52.878Z,0
2017-12-24T07:02:18.364Z,0
2017-12-24T07:02:43.844Z,0
2017-12-24T07:04:08.647Z,0
2017-12-24T07:04:34.152Z,0
2017-12-24T07:04:59.625Z,0
2017-12-24T07:05:25.097Z,0
2017-12-24T07:05:50.610Z,0
2017-12-24T07:06:16.087Z,0
2017-12-24T07:06:41.562Z,0
2017-12-24T07:07:07.042Z,0
2017-12-24T07:07:32.528Z,0
2017-12-24T07:07:58.000Z,0
2017-12-24T07:08:23.458Z,0
2017-12-24T07:08:48.940Z,0
2017-12-24T07:09:14.428Z,0
2017-12-24T07:09:39.922Z,0
2017-12-24T07:10:05.390Z,0
2017-12-24T07:10:30.844Z,0
2017-12-24T07:10:56.330Z,0
2017-12-24T07:11:21.797Z,0
2017-12-24T07:11:47.294Z,0
2017-12-24T07:12:12.756Z,0
2017-12-24T07:12:38.234Z,0
2017-12-24T07:13:03.731Z,0
2017-12-24T07:13:29.213Z,0
2017-12-24T07:13:54.693Z,0
2017-12-24T07:14:20.180Z,0
2017-12-24T07:14:45.673Z,0
2017-12-24T07:15:11.176Z,0
2017-12-24T07:15:36.645Z,0
2017-12-24T07:16:02.091Z,0
2017-12-24T07:16:27.554Z,0
2017-12-24T07:16:53.052Z,0
2017-12-24T07:17:18.551Z,0
2017-12-24T07:17:44.041Z,0
2017-12-24T07:18:09.534Z,0
2017-12-24T07:18:35.053Z,0
2017-12-24T07:19:00.532Z,0
2017-12-24T07:19:26.026Z,0
2017-12-24T07:19:51.521Z,0
2017-12-24T07:20:17.025Z,0
2017-12-24T07:20:42.532Z,0
2017-12-24T07:21:08.025Z,0
2017-12-24T07:21:33.517Z,0
2017-12-24T07:21:59.028Z,0
2017-12-24T07:23:27.630Z,0
2017-12-24T07:23:53.096Z,0
2017-12-24T07:24:18.600Z,0
2017-12-24T07:24:44.144Z,0
2017-12-24T07:25:09.633Z,0
2017-12-24T07:25:35.136Z,0
2017-12-24T07:26:00.637Z,0
2017-12-24T07:26:26.136Z,0
2017-12-24T07:26:51.619Z,0
2017-12-24T07:27:17.079Z,0
2017-12-24T07:27:42.573Z,0
2017-12-24T07:28:08.091Z,0
2017-12-24T07:28:33.534Z,0
2017-12-24T07:28:59.018Z,0
2017-12-24T07:29:24.512Z,0
2017-12-24T07:29:50.030Z,0
2017-12-24T07:30:15.489Z,0
2017-12-24T07:30:40.983Z,0
2017-12-24T07:31:06.492Z,0
2017-12-24T07:31:31.961Z,0
2017-12-24T07:31:57.457Z,0
2017-12-24T07:32:22.936Z,0
2017-12-24T07:32:48.436Z,0
2017-12-24T07:33:13.931Z,0
2017-12-24T07:33:39.431Z,0
2017-12-24T07:34:04.925Z,0
2017-12-24T07:34:30.429Z,0
2017-12-24T07:34:55.905Z,0
2017-12-24T07:35:21.402Z,0
2017-12-24T07:35:46.927Z,0
2017-12-24T07:36:12.447Z,0
2017-12-24T07:36:37.938Z,0
2017-12-24T07:37:03.440Z,0
2017-12-24T07:37:28.932Z,0
2017-12-24T07:37:54.430Z,0
2017-12-24T07:39:18.411Z,0
2017-12-24T07:39:43.898Z,0
2017-12-24T07:40:09.386Z,0
2017-12-24T07:40:34.882Z,0
2017-12-24T07:41:00.369Z,0
2017-12-24T07:41:25.836Z,0
2017-12-24T07:41:51.356Z,0
2017-12-24T07:42:16.848Z,0
2017-12-24T07:42:42.322Z,0
2017-12-24T07:43:07.797Z,0
2017-12-24T07:43:33.300Z,0
2017-12-24T07:43:58.781Z,0
2017-12-24T07:44:24.270Z,0
2017-12-24T07:45:53.360Z,0
2017-12-24T07:46:18.837Z,0
2017-12-24T07:46:44.325Z,0
2017-12-24T07:47:09.831Z,0
2017-12-24T07:47:35.320Z,0
2017-12-24T07:48:00.803Z,0
2017-12-24T07:48:26.301Z,0
2017-12-24T07:48:51.782Z,0
2017-12-24T07:49:17.275Z,0
2017-12-24T07:49:42.746Z,0
2017-12-24T07:50:08.215Z,0
2017-12-24T07:50:33.708Z,0
2017-12-24T07:50:59.237Z,0
2017-12-24T07:51:24.683Z,0
2017-12-24T07:51:50.178Z,0
2017-12-24T07:52:15.713Z,0
2017-12-24T07:52:41.224Z,0
2017-12-24T07:53:06.728Z,0
2017-12-24T07:53:32.249Z,0
2017-12-24T07:53:57.727Z,0
2017-12-24T07:54:23.226Z,0
2017-12-24T07:54:48.723Z,0
2017-12-24T07:55:14.191Z,0
2017-12-24T07:55:39.681Z,0
2017-12-24T07:56:05.186Z,0
2017-12-24T07:56:30.658Z,5
2017-12-24T07:56:56.177Z,0
2017-12-24T07:57:21.676Z,0
2017-12-24T07:57:47.175Z,0
2017-12-24T07:58:12.673Z,0
2017-12-24T07:58:38.122Z,0
2017-12-24T07:59:03.580Z,5
2017-12-24T07:59:29.061Z,5
2017-12-24T07:59:54.576Z,5
2017-12-24T08:00:20.030Z,0
2017-12-24T08:00:45.558Z,5
2017-12-24T08:01:11.031Z,5
2017-12-24T08:01:36.530Z,5
2017-12-24T08:02:01.995Z,5
2017-12-24T08:02:27.484Z,5
2017-12-24T08:02:53.029Z,5
2017-12-24T08:03:18.470Z,5
2017-12-24T08:03:43.940Z,5
2017-12-24T08:04:09.407Z,5
2017-12-24T08:04:34.938Z,5
2017-12-24T08:05:00.425Z,5
2017-12-24T08:05:25.931Z,5
2017-12-24T08:05:51.436Z,5
2017-12-24T08:06:16.924Z,5
2017-12-24T08:06:42.430Z,5
2017-12-24T08:07:07.941Z,5
2017-12-24T08:07:33.412Z,5
2017-12-24T08:07:58.910Z,5
2017-12-24T08:08:24.425Z,5
2017-12-24T08:08:49.943Z,5
2017-12-24T08:10:03.770Z,5
2017-12-24T08:10:29.258Z,5
2017-12-24T08:10:54.752Z,5
2017-12-24T08:11:20.233Z,5
2017-12-24T08:11:45.714Z,5
2017-12-24T08:12:11.189Z,5
2017-12-24T08:12:36.675Z,5
2017-12-24T08:13:02.162Z,5
2017-12-24T08:13:27.695Z,5
2017-12-24T08:13:53.167Z,5
2017-12-24T08:14:18.680Z,5
2017-12-24T08:14:44.152Z,5
2017-12-24T08:15:09.635Z,5
2017-12-24T08:15:35.102Z,5
2017-12-24T08:16:00.609Z,5
2017-12-24T08:16:26.100Z,5
2017-12-24T08:16:51.596Z,5
2017-12-24T08:17:17.089Z,5
2017-12-24T08:17:42.612Z,5
2017-12-24T08:18:08.120Z,5
2017-12-24T08:18:33.606Z,10
2017-12-24T08:19:41.804Z,5
2017-12-24T08:20:07.301Z,10
2017-12-24T08:20:32.865Z,10
2017-12-24T08:20:58.324Z,10
2017-12-24T08:21:23.828Z,10
2017-12-24T08:21:49.326Z,10
2017-12-24T08:22:14.850Z,10
2017-12-24T08:22:40.346Z,10
2017-12-24T08:23:05.817Z,10
2017-12-24T08:23:31.350Z,15
2017-12-24T08:23:56.832Z,10
2017-12-24T08:24:22.323Z,10
2017-12-24T08:24:47.812Z,15
2017-12-24T08:25:13.306Z,10
2017-12-24T08:25:38.782Z,10
2017-12-24T08:26:04.264Z,10
2017-12-24T08:26:29.738Z,10
2017-12-24T08:26:55.224Z,10
2017-12-24T08:27:20.712Z,15
2017-12-24T08:27:46.194Z,15
2017-12-24T08:28:11.684Z,10
2017-12-24T08:28:37.164Z,10
2017-12-24T08:29:02.659Z,10
2017-12-24T08:29:28.146Z,10
2017-12-24T08:29:53.670Z,10
2017-12-24T08:30:19.144Z,15
2017-12-24T08:30:44.622Z,15
2017-12-24T08:31:10.120Z,15
2017-12-24T08:31:35.590Z,15
2017-12-24T08:32:01.157Z,15
2017-12-24T08:32:26.625Z,15
2017-12-24T08:32:52.111Z,15
2017-12-24T08:33:17.621Z,15
2017-12-24T08:33:43.091Z,15
2017-12-24T08:34:08.602Z,10
2017-12-24T08:35:17.304Z,15
2017-12-24T08:35:42.802Z,15
2017-12-24T08:37:11.377Z,20
2017-12-24T08:37:36.866Z,20
2017-12-24T08:38:02.354Z,20
2017-12-24T08:38:27.847Z,15
2017-12-24T08:39:36.564Z,15
2017-12-24T08:40:02.060Z,15
2017-12-24T08:40:27.569Z,15
2017-12-24T08:41:36.277Z,15
2017-12-24T08:42:01.780Z,20
2017-12-24T08:42:27.278Z,20
2017-12-24T08:42:52.769Z,20
2017-12-24T08:43:18.260Z,20
2017-12-24T08:43:43.749Z,20
2017-12-24T08:44:09.234Z,20
2017-12-24T08:44:34.742Z,20
2017-12-24T08:45:00.243Z,20
2017-12-24T08:45:25.711Z,20
2017-12-24T08:45:51.195Z,20
2017-12-24T08:46:16.694Z,25
2017-12-24T08:46:42.192Z,25
2017-12-24T08:47:07.658Z,20
2017-12-24T08:47:33.127Z,20
2017-12-24T08:47:58.638Z,20
2017-12-24T08:48:24.174Z,20
2017-12-24T08:48:49.675Z,20
2017-12-24T08:49:15.175Z,20
2017-12-24T08:49:40.650Z,20
2017-12-24T08:50:59.537Z,25
2017-12-24T08:51:25.047Z,25
2017-12-24T08:51:50.554Z,20
2017-12-24T08:52:16.067Z,20
2017-12-24T08:52:41.552Z,20
2017-12-24T08:53:07.056Z,25
2017-12-24T08:53:32.497Z,25
2017-12-24T08:53:57.963Z,25
2017-12-24T08:54:23.389Z,25
2017-12-24T08:54:48.856Z,20
2017-12-24T08:55:14.334Z,20
2017-12-24T08:55:39.802Z,20
2017-12-24T08:56:05.288Z,20
2017-12-24T08:56:30.767Z,20
2017-12-24T08:56:56.256Z,25
2017-12-24T08:57:21.727Z,20
2017-12-24T08:57:47.180Z,20
2017-12-24T08:58:12.700Z,20
2017-12-24T08:58:38.190Z,30
2017-12-24T08:59:03.614Z,30
2017-12-24T08:59:29.037Z,30
2017-12-24T08:59:54.490Z,30
2017-12-24T09:00:20.012Z,25
2017-12-24T09:00:45.480Z,25
2017-12-24T09:01:10.990Z,30
2017-12-24T09:01:36.452Z,25
2017-12-24T09:02:01.952Z,30
2017-12-24T09:02:27.399Z,25
2017-12-24T09:02:52.872Z,25
2017-12-24T09:03:18.332Z,25
2017-12-24T09:03:43.792Z,30
2017-12-24T09:04:09.243Z,30
2017-12-24T09:04:34.738Z,35
2017-12-24T09:05:00.255Z,30
2017-12-24T09:05:25.674Z,25
2017-12-24T09:05:51.167Z,30
2017-12-24T09:06:16.620Z,30
2017-12-24T09:06:42.130Z,30
2017-12-24T09:07:07.563Z,30
2017-12-24T09:07:33.052Z,30
2017-12-24T09:07:58.496Z,30
2017-12-24T09:08:23.943Z,25
2017-12-24T09:08:49.427Z,30
2017-12-24T09:09:14.881Z,35
2017-12-24T09:09:40.379Z,35
2017-12-24T09:10:05.859Z,35
2017-12-24T09:10:31.345Z,35
2017-12-24T09:10:56.847Z,35
2017-12-24T09:11:22.330Z,35
2017-12-24T09:11:47.817Z,35
2017-12-24T09:12:13.298Z,30
2017-12-24T09:12:38.758Z,30
2017-12-24T09:13:04.245Z,30
2017-12-24T09:13:29.747Z,35
2017-12-24T09:13:55.189Z,35
2017-12-24T09:14:20.655Z,35
2017-12-24T09:14:46.122Z,30
2017-12-24T09:15:11.604Z,30
2017-12-24T09:15:37.050Z,30
2017-12-24T09:16:02.530Z,25
2017-12-24T09:16:28.007Z,25
2017-12-24T09:16:53.476Z,25
2017-12-24T09:17:18.925Z,25
2017-12-24T09:17:44.425Z,25
2017-12-24T09:18:09.924Z,25
2017-12-24T09:19:18.623Z,30
2017-12-24T09:19:44.115Z,30
2017-12-24T09:20:09.615Z,25
2017-12-24T09:20:35.113Z,25
2017-12-24T09:21:00.581Z,25
2017-12-24T09:21:26.028Z,30
2017-12-24T09:21:51.469Z,30
2017-12-24T09:22:16.952Z,30
2017-12-24T09:22:42.377Z,30
2017-12-24T09:23:07.821Z,30
2017-12-24T09:23:33.290Z,30
2017-12-24T09:23:58.732Z,30
2017-12-24T09:24:24.201Z,30
2017-12-24T09:24:49.669Z,30
2017-12-24T09:25:15.164Z,35
2017-12-24T09:25:40.655Z,30
2017-12-24T09:26:06.148Z,30
2017-12-24T09:26:31.652Z,35
2017-12-24T09:26:57.145Z,40
2017-12-24T09:27:22.624Z,45
2017-12-24T09:27:48.152Z,40
2017-12-24T09:28:13.640Z,40
2017-12-24T09:28:39.083Z,40
2017-12-24T09:29:04.551Z,45
2017-12-24T09:30:18.336Z,45
2017-12-24T09:30:43.823Z,40
2017-12-24T09:31:09.315Z,40
2017-12-24T09:31:34.779Z,40
2017-12-24T09:32:00.257Z,40
2017-12-24T09:33:14.028Z,40
2017-12-24T09:33:39.514Z,35
2017-12-24T09:34:05.009Z,35
2017-12-24T09:34:30.497Z,40
2017-12-24T09:34:56.005Z,40
2017-12-24T09:35:21.487Z,40
2017-12-24T09:35:46.932Z,40
2017-12-24T09:36:12.426Z,45
2017-12-24T09:36:37.871Z,40
2017-12-24T09:37:03.320Z,40
2017-12-24T09:37:28.773Z,40
2017-12-24T09:37:54.265Z,35
2017-12-24T09:38:19.764Z,35
2017-12-24T09:38:45.294Z,35
2017-12-24T09:39:10.770Z,35
2017-12-24T09:40:34.743Z,40
2017-12-24T09:41:00.240Z,40
2017-12-24T09:41:25.718Z,40
2017-12-24T09:41:51.189Z,40
2017-12-24T09:42:16.647Z,40
2017-12-24T09:42:42.116Z,40
2017-12-24T09:43:07.573Z,40
2017-12-24T09:43:33.047Z,40
2017-12-24T09:43:58.514Z,45
2017-12-24T09:45:22.500Z,45
2017-12-24T09:45:47.990Z,40
2017-12-24T09:46:13.480Z,35
2017-12-24T09:46:38.937Z,35
2017-12-24T09:47:04.399Z,35
2017-12-24T09:47:29.854Z,40
2017-12-24T09:47:55.312Z,35
2017-12-24T09:48:20.753Z,35
2017-12-24T09:48:46.221Z,35
2017-12-24T09:49:11.693Z,40
2017-12-24T09:49:37.179Z,45
2017-12-24T09:50:02.633Z,50
2017-12-24T09:50:28.068Z,45
2017-12-24T09:50:53.549Z,45
2017-12-24T09:51:18.977Z,45
2017-12-24T09:51:44.433Z,45
2017-12-24T09:52:09.895Z,45
2017-12-24T09:52:35.361Z,50
2017-12-24T09:53:00.809Z,45
2017-12-24T09:53:26.290Z,40
2017-12-24T09:54:45.175Z,35
2017-12-24T09:55:10.671Z,35
2017-12-24T09:55:36.156Z,35
2017-12-24T09:56:01.651Z,30
2017-12-24T09:56:27.128Z,30
2017-12-24T09:56:52.604Z,30
2017-12-24T09:57:18.092Z,35
2017-12-24T09:57:43.557Z,35
2017-12-24T09:58:09.064Z,35
2017-12-24T09:58:34.535Z,35
2017-12-24T09:59:00.015Z,40
2017-12-24T09:59:25.514Z,45
2017-12-24T09:59:51.007Z,45
2017-12-24T10:00:16.502Z,40
2017-12-24T10:00:41.995Z,45
2017-12-24T10:01:07.471Z,45
2017-12-24T10:01:32.957Z,40
2017-12-24T10:01:58.434Z,40
2017-12-24T10:02:23.912Z,35
2017-12-24T10:02:49.397Z,35
2017-12-24T10:03:14.882Z,35
2017-12-24T10:03:40.398Z,35
2017-12-24T10:04:05.878Z,35
2017-12-24T10:04:31.360Z,35
2017-12-24T10:04:56.856Z,35
2017-12-24T10:05:22.288Z,40
2017-12-24T10:05:47.779Z,45
2017-12-24T10:06:13.261Z,45
2017-12-24T10:06:38.814Z,40
2017-12-24T10:07:04.262Z,45
2017-12-24T10:07:29.742Z,45
2017-12-24T10:07:55.218Z,45
2017-12-24T10:08:20.727Z,45
2017-12-24T10:08:46.202Z,45
2017-12-24T10:09:11.682Z,55
2017-12-24T10:09:37.190Z,50
2017-12-24T10:10:02.649Z,45
2017-12-24T10:10:28.107Z,40
2017-12-24T10:11:36.806Z,35
2017-12-24T10:12:02.308Z,35
2017-12-24T10:12:27.752Z,35
2017-12-24T10:12:53.232Z,35
2017-12-24T10:13:18.730Z,35
2017-12-24T10:13:44.218Z,35
2017-12-24T10:14:09.683Z,35
2017-12-24T10:14:35.181Z,40
2017-12-24T10:15:00.674Z,45
2017-12-24T10:15:26.154Z,45
2017-12-24T10:15:51.640Z,45
2017-12-24T10:16:17.112Z,40
2017-12-24T10:16:42.604Z,45
2017-12-24T10:17:08.093Z,40
2017-12-24T10:17:33.586Z,35
2017-12-24T10:17:59.156Z,35
2017-12-24T10:18:24.535Z,35
2017-12-24T10:18:50.030Z,35
2017-12-24T10:19:15.546Z,40
2017-12-24T10:19:41.049Z,40
2017-12-24T10:20:06.542Z,45
2017-12-24T10:20:32.047Z,45
2017-12-24T10:20:57.576Z,45
2017-12-24T10:21:23.052Z,45
2017-12-24T10:21:48.554Z,45
2017-12-24T10:22:14.057Z,40
2017-12-24T10:22:39.566Z,40
2017-12-24T10:23:05.055Z,35
2017-12-24T10:23:30.525Z,35
2017-12-24T10:23:56.026Z,30
2017-12-24T10:24:21.517Z,35
2017-12-24T10:24:47.016Z,35
2017-12-24T10:25:12.518Z,30
2017-12-24T10:25:38.022Z,35
2017-12-24T10:26:03.516Z,40
2017-12-24T10:26:29.009Z,45
2017-12-24T10:26:54.521Z,50
2017-12-24T10:27:19.998Z,45
2017-12-24T10:27:45.477Z,45
2017-12-24T10:28:10.970Z,45
2017-12-24T10:28:36.443Z,40
2017-12-24T10:29:01.942Z,35
2017-12-24T10:29:27.436Z,35
2017-12-24T10:29:52.921Z,35
2017-12-24T10:30:18.402Z,35
2017-12-24T10:30:43.901Z,30
2017-12-24T10:31:09.362Z,30
2017-12-24T10:31:34.860Z,35
2017-12-24T10:32:00.355Z,35
2017-12-24T10:32:25.826Z,30
2017-12-24T10:32:51.310Z,30
2017-12-24T10:33:16.821Z,35
2017-12-24T10:33:42.330Z,35
2017-12-24T10:34:07.824Z,30
2017-12-24T10:34:33.332Z,35
2017-12-24T10:34:58.811Z,35
2017-12-24T10:35:24.307Z,35
2017-12-24T10:35:49.810Z,40
2017-12-24T10:36:15.296Z,40
2017-12-24T10:36:40.781Z,35
2017-12-24T10:37:49.482Z,40
2017-12-24T10:38:14.974Z,40
2017-12-24T10:38:40.571Z,35
2017-12-24T10:39:06.030Z,35
2017-12-24T10:39:31.507Z,35
2017-12-24T10:39:56.999Z,35
2017-12-24T10:40:22.500Z,30
2017-12-24T10:40:47.978Z,30
2017-12-24T10:41:13.482Z,30
2017-12-24T10:41:38.961Z,30
2017-12-24T10:42:04.491Z,35
2017-12-24T10:42:29.940Z,40
2017-12-24T10:42:55.415Z,45
2017-12-24T10:43:20.889Z,45
2017-12-24T10:43:46.380Z,45
2017-12-24T10:45:00.178Z,45
2017-12-24T10:45:25.683Z,45
2017-12-24T10:45:51.178Z,40
2017-12-24T10:46:16.674Z,45
2017-12-24T10:46:42.155Z,45
2017-12-24T10:47:07.647Z,40
2017-12-24T10:47:33.106Z,40
2017-12-24T10:47:58.544Z,40
2017-12-24T10:48:24.061Z,40
2017-12-24T10:48:49.567Z,40
2017-12-24T10:49:15.032Z,40
2017-12-24T10:49:40.518Z,45
2017-12-24T10:50:06.037Z,50
2017-12-24T10:50:31.550Z,45
2017-12-24T10:50:57.046Z,45
2017-12-24T10:51:22.521Z,45
2017-12-24T10:51:47.984Z,40
2017-12-24T10:52:13.473Z,40
2017-12-24T10:52:38.963Z,45
2017-12-24T10:53:04.461Z,40
2017-12-24T10:53:29.935Z,45
2017-12-24T10:53:55.412Z,45
2017-12-24T10:54:20.948Z,40
2017-12-24T10:54:46.345Z,45
2017-12-24T10:55:11.842Z,45
2017-12-24T10:55:37.315Z,40
2017-12-24T10:56:02.755Z,40
2017-12-24T10:56:28.194Z,40
2017-12-24T10:56:53.675Z,40
2017-12-24T10:57:19.171Z,45
2017-12-24T10:57:44.671Z,40
2017-12-24T10:58:10.137Z,45
2017-12-24T10:58:35.623Z,45
2017-12-24T10:59:01.097Z,50
2017-12-24T10:59:26.573Z,65
2017-12-24T10:59:52.043Z,65
2017-12-24T11:00:17.490Z,65
2017-12-24T11:00:42.986Z,60
2017-12-24T11:01:08.543Z,60
2017-12-24T11:01:34.036Z,65
2017-12-24T11:01:59.544Z,55
2017-12-24T11:02:25.089Z,50
2017-12-24T11:02:50.591Z,35
2017-12-24T11:04:19.702Z,45
2017-12-24T11:04:45.172Z,35
2017-12-24T11:05:10.665Z,35
2017-12-24T11:05:36.163Z,35
2017-12-24T11:06:01.652Z,35
2017-12-24T11:06:27.103Z,35
2017-12-24T11:06:52.582Z,35
2017-12-24T11:07:18.049Z,35
2017-12-24T11:07:43.540Z,40
2017-12-24T11:08:09.034Z,40
2017-12-24T11:08:34.515Z,40
2017-12-24T11:09:00.023Z,45
2017-12-24T11:09:25.485Z,45
2017-12-24T11:09:50.978Z,40
2017-12-24T11:10:16.455Z,45
2017-12-24T11:10:41.908Z,55
2017-12-24T11:11:07.371Z,50
2017-12-24T11:11:32.868Z,45
2017-12-24T11:11:58.349Z,45
2017-12-24T11:12:23.812Z,50
2017-12-24T11:12:49.307Z,50
2017-12-24T11:13:14.770Z,55
2017-12-24T11:13:40.228Z,60
2017-12-24T11:14:05.699Z,55
2017-12-24T11:14:31.199Z,50
2017-12-24T11:14:56.677Z,45
2017-12-24T11:15:22.177Z,50
2017-12-24T11:15:47.666Z,45
2017-12-24T11:16:13.201Z,45
2017-12-24T11:16:38.666Z,45
2017-12-24T11:17:04.162Z,45
2017-12-24T11:17:29.644Z,45
2017-12-24T11:17:55.140Z,45
2017-12-24T11:19:14.074Z,45
2017-12-24T11:19:39.567Z,45
2017-12-24T11:20:05.066Z,40
2017-12-24T11:20:30.558Z,40
2017-12-24T11:20:56.023Z,40
2017-12-24T11:21:21.516Z,45
2017-12-24T11:21:46.961Z,40
2017-12-24T11:22:12.438Z,40
2017-12-24T11:23:26.216Z,40
2017-12-24T11:23:51.719Z,45
2017-12-24T11:24:17.225Z,45
2017-12-24T11:24:42.699Z,45
2017-12-24T11:25:08.186Z,45
2017-12-24T11:25:33.660Z,40
2017-12-24T11:25:59.138Z,40
2017-12-24T11:26:24.638Z,40
2017-12-24T11:26:50.123Z,40
2017-12-24T11:27:15.643Z,40
2017-12-24T11:27:41.136Z,45
2017-12-24T11:28:06.655Z,40
2017-12-24T11:28:32.143Z,50
2017-12-24T11:28:57.639Z,45
2017-12-24T11:29:23.143Z,40
2017-12-24T11:29:48.622Z,40
2017-12-24T11:30:14.108Z,45
2017-12-24T11:30:39.622Z,45
2017-12-24T11:31:05.084Z,40
2017-12-24T11:31:30.567Z,40
2017-12-24T11:31:56.065Z,35
2017-12-24T11:32:21.529Z,35
2017-12-24T11:32:47.008Z,40
2017-12-24T11:33:12.495Z,40
2017-12-24T11:33:37.991Z,35
2017-12-24T11:34:03.481Z,40
2017-12-24T11:34:28.955Z,35
2017-12-24T11:34:54.452Z,35
2017-12-24T11:35:19.957Z,30
2017-12-24T11:35:45.427Z,30
2017-12-24T11:36:10.900Z,35
2017-12-24T11:36:36.456Z,35
2017-12-24T11:37:01.945Z,30
2017-12-24T11:37:27.466Z,35
2017-12-24T11:37:52.940Z,30
2017-12-24T11:38:18.449Z,30
2017-12-24T11:38:43.960Z,25
2017-12-24T11:39:09.474Z,25
2017-12-24T11:39:34.977Z,25
2017-12-24T11:40:00.478Z,25
2017-12-24T11:40:25.957Z,25